createdAt,value
2022-08-01T00:00:09.161Z,85.40
2022-08-01T00:02:39.297Z,85.40
2022-08-01T00:05:07.396Z,85.60
2022-08-01T00:07:35.186Z,86.00
2022-08-01T00:10:03.810Z,86.50
2022-08-01T00:12:30.590Z,86.50
2022-08-01T00:14:57.421Z,86.90
2022-08-01T00:17:24.184Z,87.00
2022-08-01T00:19:50.984Z,87.30
2022-08-01T00:22:18.081Z,88.00
2022-08-01T00:24:44.860Z,88.40
2022-08-01T00:27:11.668Z,89.10
2022-08-01T00:30:09.642Z,89.80
2022-08-01T00:32:25.606Z,90.30
2022-08-01T00:34:52.473Z,90.60
2022-08-01T00:37:19.342Z,90.70
2022-08-01T00:39:46.163Z,91.40
2022-08-01T00:42:13.945Z,91.70
2022-08-01T00:44:41.243Z,92.30
2022-08-01T00:47:08.717Z,92.80
2022-08-01T00:49:36.202Z,92.80
2022-08-01T00:52:06.478Z,93.00
2022-08-01T00:54:33.753Z,93.30
2022-08-01T00:57:00.952Z,93.50
2022-08-01T00:59:28.401Z,93.80
2022-08-01T01:02:01.811Z,94.10
2022-08-01T01:04:28.638Z,94.30
2022-08-01T01:07:18.367Z,94.50
2022-08-01T01:10:08.539Z,94.60
2022-08-01T01:12:57.111Z,94.80
2022-08-01T01:15:40.611Z,95.00
2022-08-01T01:18:24.496Z,95.10
2022-08-01T01:21:01.940Z,95.30
2022-08-01T01:24:08.757Z,95.30
2022-08-01T01:27:19.888Z,95.40
2022-08-01T01:29:59.023Z,95.50
2022-08-01T01:32:30.934Z,95.50
2022-08-01T01:34:59.711Z,95.40
2022-08-01T01:37:28.343Z,95.40
2022-08-01T01:39:56.558Z,95.50
2022-08-01T01:42:24.997Z,95.50
2022-08-01T01:44:52.906Z,95.40
2022-08-01T01:47:20.211Z,95.50
2022-08-01T01:49:49.107Z,95.50
2022-08-01T01:52:18.216Z,95.60
2022-08-01T01:54:51.867Z,95.60
2022-08-01T01:57:19.648Z,95.60
2022-08-01T01:59:48.935Z,95.60
2022-08-01T02:02:17.515Z,95.80
2022-08-01T02:04:47.729Z,95.80
2022-08-01T02:07:20.162Z,95.90
2022-08-01T02:09:48.133Z,96.10
2022-08-01T02:12:17.643Z,96.20
2022-08-01T02:14:46.848Z,96.20
2022-08-01T02:17:18.184Z,96.30
2022-08-01T02:19:45.808Z,96.40
2022-08-01T02:22:18.187Z,96.60
2022-08-01T02:24:58.801Z,96.60
2022-08-01T02:27:59.309Z,96.80
2022-08-01T02:30:26.923Z,96.80
2022-08-01T02:33:03.128Z,97.00
2022-08-01T02:35:33.471Z,97.10
2022-08-01T02:38:02.519Z,97.20
2022-08-01T02:40:33.856Z,97.40
2022-08-01T02:43:03.643Z,97.80
2022-08-01T02:45:32.275Z,97.80
2022-08-01T02:48:02.358Z,97.80
2022-08-01T02:50:32.984Z,97.70
2022-08-01T02:53:02.675Z,97.80
2022-08-01T02:55:31.802Z,97.80
2022-08-01T02:58:01.001Z,97.90
2022-08-01T03:00:30.655Z,97.90
2022-08-01T03:02:59.836Z,97.90
2022-08-01T03:05:28.281Z,97.80
2022-08-01T03:08:02.569Z,98.00
2022-08-01T03:10:33.000Z,98.00
2022-08-01T03:13:02.261Z,98.10
2022-08-01T03:15:31.946Z,98.20
2022-08-01T03:18:01.910Z,98.20
2022-08-01T03:20:30.845Z,98.40
2022-08-01T03:22:59.032Z,98.40
2022-08-01T03:25:26.749Z,98.50
2022-08-01T03:27:57.633Z,98.70
2022-08-01T03:30:27.710Z,98.70
2022-08-01T03:32:54.961Z,98.70
2022-08-01T03:35:24.828Z,98.90
2022-08-01T03:41:00.125Z,99.10
2022-08-01T03:43:30.161Z,99.10
2022-08-01T03:46:02.420Z,99.00
2022-08-01T03:48:32.791Z,99.10
2022-08-01T03:51:00.382Z,99.20
2022-08-01T03:53:31.555Z,99.30
2022-08-01T03:56:01.019Z,99.50
2022-08-01T03:58:29.500Z,99.50
2022-08-01T04:00:57.800Z,99.60
2022-08-01T04:03:25.486Z,99.70
2022-08-01T04:05:52.409Z,99.90
2022-08-01T04:08:19.288Z,99.90
2022-08-01T04:10:46.334Z,99.90
2022-08-01T04:13:17.180Z,99.90
2022-08-01T04:15:44.043Z,99.90
2022-08-01T04:18:11.756Z,99.90
2022-08-01T04:20:38.625Z,99.90
2022-08-01T04:23:05.628Z,99.90
2022-08-01T04:25:38.338Z,99.90
2022-08-01T04:28:08.584Z,99.90
2022-08-01T04:30:38.467Z,99.90
2022-08-01T04:33:07.616Z,99.90
2022-08-01T04:36:03.653Z,99.90
2022-08-01T04:38:28.456Z,99.90
2022-08-01T04:40:57.062Z,99.90
2022-08-01T04:43:24.092Z,99.90
2022-08-01T04:45:51.920Z,99.90
2022-08-01T04:48:22.978Z,99.90
2022-08-01T04:50:50.503Z,99.90
2022-08-01T04:53:19.112Z,99.90
2022-08-01T04:55:47.276Z,99.90
2022-08-01T04:58:17.907Z,99.90
2022-08-01T05:00:46.136Z,99.90
2022-08-01T05:03:13.012Z,99.90
2022-08-01T05:05:39.950Z,99.90
2022-08-01T05:08:07.275Z,99.90
2022-08-01T05:10:34.853Z,99.90
2022-08-01T05:13:01.783Z,99.90
2022-08-01T05:15:28.652Z,99.90
2022-08-01T05:17:55.786Z,99.90
2022-08-01T05:20:22.657Z,99.90
2022-08-01T05:22:49.791Z,99.90
2022-08-01T05:25:20.514Z,99.90
2022-08-01T05:28:03.585Z,99.90
2022-08-01T05:30:30.461Z,99.90
2022-08-01T05:32:57.442Z,99.90
2022-08-01T05:35:24.409Z,99.90
2022-08-01T05:38:12.643Z,99.90
2022-08-01T05:40:41.814Z,99.90
2022-08-01T05:43:08.647Z,99.90
2022-08-01T05:45:35.508Z,99.90
2022-08-01T05:48:02.294Z,99.90
2022-08-01T05:50:29.191Z,99.90
2022-08-01T05:52:55.969Z,99.90
2022-08-01T05:55:23.022Z,99.90
2022-08-01T05:57:49.813Z,99.90
2022-08-01T06:00:17.195Z,99.90
2022-08-01T06:02:44.478Z,99.90
2022-08-01T06:05:13.450Z,99.90
2022-08-01T06:07:41.290Z,99.90
2022-08-01T06:10:09.280Z,99.90
2022-08-01T06:12:37.295Z,99.90
2022-08-01T06:15:05.844Z,99.90
2022-08-01T06:17:32.644Z,99.90
2022-08-01T06:19:59.573Z,99.90
2022-08-01T06:22:26.789Z,99.90
2022-08-01T06:24:53.685Z,99.90
2022-08-01T06:27:21.524Z,99.90
2022-08-01T06:29:51.115Z,99.90
2022-08-01T06:32:26.806Z,99.90
2022-08-01T06:34:55.643Z,99.90
2022-08-01T06:37:23.292Z,99.90
2022-08-01T06:39:50.729Z,99.90
2022-08-01T06:42:18.538Z,99.90
2022-08-01T06:44:46.115Z,99.90
2022-08-01T06:47:13.025Z,99.90
2022-08-01T06:49:39.845Z,99.90
2022-08-01T06:52:07.063Z,99.90
2022-08-01T06:54:34.142Z,99.90
2022-08-01T06:57:00.940Z,99.90
2022-08-01T06:59:27.831Z,99.90
2022-08-01T07:01:54.621Z,99.90
2022-08-01T07:04:21.412Z,99.90
2022-08-01T07:06:48.304Z,99.90
2022-08-01T07:09:15.062Z,99.90
2022-08-01T07:11:42.087Z,99.90
2022-08-01T07:14:09.050Z,99.90
2022-08-01T07:16:35.958Z,99.90
2022-08-01T07:19:02.893Z,99.90
2022-08-01T07:21:40.521Z,99.90
2022-08-01T07:24:14.506Z,99.90
2022-08-01T07:26:54.202Z,99.90
2022-08-01T07:29:25.310Z,99.90
2022-08-01T07:31:54.209Z,99.90
2022-08-01T07:34:21.783Z,99.90
2022-08-01T07:36:48.838Z,99.90
2022-08-01T07:39:15.732Z,99.90
2022-08-01T07:41:53.454Z,99.90
2022-08-01T07:44:29.533Z,99.90
2022-08-01T07:46:56.718Z,99.90
2022-08-01T07:49:24.698Z,99.90
2022-08-01T07:52:04.190Z,99.90
2022-08-01T07:54:35.392Z,99.90
2022-08-01T07:57:03.492Z,99.90
2022-08-01T07:59:30.562Z,99.90
2022-08-01T08:01:57.545Z,99.90
2022-08-01T08:04:24.485Z,99.90
2022-08-01T08:06:51.807Z,99.90
2022-08-01T08:09:18.861Z,99.90
2022-08-01T08:11:47.988Z,99.90
2022-08-01T08:14:18.519Z,99.90
2022-08-01T08:16:46.540Z,99.90
2022-08-01T08:19:13.519Z,99.90
2022-08-01T08:21:40.722Z,99.90
2022-08-01T08:24:26.374Z,99.90
2022-08-01T08:26:56.922Z,99.90
2022-08-01T08:29:24.183Z,99.90
2022-08-01T08:32:03.775Z,99.90
2022-08-01T08:34:31.192Z,99.90
2022-08-01T08:37:00.004Z,99.90
2022-08-01T08:39:41.244Z,99.90
2022-08-01T08:42:09.767Z,99.90
2022-08-01T08:44:36.755Z,99.90
2022-08-01T08:47:09.306Z,99.90
2022-08-01T08:49:39.368Z,99.90
2022-08-01T08:52:11.190Z,99.90
2022-08-01T08:54:43.482Z,99.90
2022-08-01T08:57:11.850Z,99.90
2022-08-01T08:59:39.133Z,99.90
2022-08-01T09:02:10.778Z,99.90
2022-08-01T09:04:40.104Z,99.90
2022-08-01T09:07:07.751Z,99.90
2022-08-01T09:09:35.133Z,99.90
2022-08-01T09:12:11.001Z,99.90
2022-08-01T09:14:54.654Z,99.50
2022-08-01T09:17:22.381Z,99.50
2022-08-01T09:19:55.525Z,99.50
2022-08-01T09:22:27.140Z,99.70
2022-08-01T09:25:06.060Z,99.70
2022-08-01T09:27:34.552Z,99.90
2022-08-01T09:30:11.892Z,99.80
2022-08-01T09:32:58.183Z,99.60
2022-08-01T09:35:32.043Z,99.50
2022-08-01T09:38:36.826Z,99.50
2022-08-01T09:41:03.749Z,99.50
2022-08-01T09:43:32.462Z,99.60
2022-08-01T09:46:20.686Z,99.60
2022-08-01T09:49:10.730Z,99.60
2022-08-01T09:52:00.090Z,99.80
2022-08-01T09:54:37.179Z,99.90
2022-08-01T09:57:15.541Z,99.90
2022-08-01T09:59:58.447Z,99.90
2022-08-01T10:02:35.876Z,99.90
2022-08-01T10:05:08.952Z,99.80
2022-08-01T10:07:55.703Z,99.80
2022-08-01T10:10:28.958Z,99.80
2022-08-01T10:12:58.475Z,99.70
2022-08-01T10:15:37.334Z,99.70
2022-08-01T10:18:21.461Z,99.50
2022-08-01T10:20:59.616Z,99.60
2022-08-01T10:23:39.529Z,99.70
2022-08-01T10:26:09.367Z,99.70
2022-08-01T10:28:38.698Z,99.70
2022-08-01T10:31:12.629Z,99.50
2022-08-01T10:33:51.260Z,99.50
2022-08-01T10:36:25.500Z,99.50
2022-08-01T10:38:55.159Z,99.50
2022-08-01T10:41:22.618Z,99.40
2022-08-01T10:43:49.413Z,99.50
2022-08-01T10:46:17.544Z,99.60
2022-08-01T10:49:12.042Z,99.70
2022-08-01T10:51:52.696Z,99.60
2022-08-01T10:54:26.839Z,99.60
2022-08-01T10:56:54.524Z,99.40
2022-08-01T10:59:49.949Z,99.50
2022-08-01T11:02:34.494Z,99.50
2022-08-01T11:05:21.171Z,99.60
2022-08-01T11:07:55.199Z,99.50
2022-08-01T11:10:40.064Z,99.50
2022-08-01T11:13:12.320Z,99.30
2022-08-01T11:15:50.303Z,99.10
2022-08-01T11:18:31.120Z,98.80
2022-08-01T11:21:59.214Z,98.90
2022-08-01T11:23:57.681Z,99.10
2022-08-01T11:26:29.400Z,99.40
2022-08-01T11:29:22.616Z,99.80
2022-08-01T11:31:51.226Z,99.90
2022-08-01T11:34:18.332Z,99.90
2022-08-01T11:37:01.421Z,99.90
2022-08-01T11:39:30.168Z,99.90
2022-08-01T11:42:19.515Z,99.90
2022-08-01T11:44:51.354Z,99.90
2022-08-01T11:47:18.351Z,99.90
2022-08-01T11:49:55.697Z,99.90
2022-08-01T11:52:30.976Z,99.90
2022-08-01T11:54:59.184Z,99.90
2022-08-01T11:57:33.959Z,99.90
2022-08-01T12:00:10.780Z,99.90
2022-08-01T12:02:43.076Z,99.90
2022-08-01T12:05:15.644Z,99.90
2022-08-01T12:07:44.281Z,99.90
2022-08-01T12:10:16.800Z,99.90
2022-08-01T12:12:55.196Z,99.10
2022-08-01T12:15:25.015Z,98.80
2022-08-01T12:18:01.285Z,98.70
2022-08-01T12:20:31.851Z,98.50
2022-08-01T12:23:09.783Z,98.50
2022-08-01T12:25:37.757Z,98.50
2022-08-01T12:28:07.111Z,98.40
2022-08-01T12:30:38.175Z,98.40
2022-08-01T12:33:09.773Z,98.20
2022-08-01T12:35:38.602Z,98.10
2022-08-01T12:38:08.821Z,97.90
2022-08-01T12:40:40.810Z,97.80
2022-08-01T12:43:15.823Z,97.90
2022-08-01T12:45:57.302Z,97.90
2022-08-01T12:48:26.007Z,97.60
2022-08-01T12:50:54.281Z,97.50
2022-08-01T12:53:22.286Z,97.50
2022-08-01T12:55:58.452Z,97.50
2022-08-01T12:58:33.263Z,97.40
2022-08-01T13:01:08.897Z,97.40
2022-08-01T13:03:36.417Z,97.30
2022-08-01T13:06:15.906Z,97.30
2022-08-01T13:08:43.312Z,97.60
2022-08-01T13:11:16.275Z,97.80
2022-08-01T13:13:49.238Z,97.70
2022-08-01T13:16:30.763Z,97.80
2022-08-01T13:19:06.826Z,97.80
2022-08-01T13:21:53.194Z,97.60
2022-08-01T13:24:30.653Z,97.50
2022-08-01T13:27:04.446Z,97.50
2022-08-01T13:29:33.679Z,97.50
2022-08-01T13:32:13.650Z,97.50
2022-08-01T13:35:10.454Z,97.40
2022-08-01T13:37:41.900Z,97.30
2022-08-01T13:40:10.969Z,96.90
2022-08-01T13:42:38.255Z,96.90
2022-08-01T13:45:13.930Z,96.90
2022-08-01T13:48:04.204Z,97.10
2022-08-01T13:50:29.786Z,96.80
2022-08-01T13:52:56.612Z,96.80
2022-08-01T13:55:23.391Z,96.60
2022-08-01T13:57:51.172Z,96.40
2022-08-01T14:00:18.151Z,96.30
2022-08-01T14:02:45.091Z,95.70
2022-08-01T14:05:12.380Z,95.50
2022-08-01T14:07:39.269Z,95.60
2022-08-01T14:10:19.378Z,95.40
2022-08-01T14:12:48.494Z,95.20
2022-08-01T14:15:18.163Z,94.30
2022-08-01T14:18:02.472Z,94.10
2022-08-01T14:20:29.427Z,93.80
2022-08-01T14:22:56.468Z,93.20
2022-08-01T14:26:00.258Z,92.80
2022-08-01T14:28:11.464Z,92.30
2022-08-01T14:30:38.312Z,91.90
2022-08-01T14:33:05.260Z,91.90
2022-08-01T14:35:57.642Z,92.10
2022-08-01T14:38:30.560Z,92.30
2022-08-01T14:41:00.310Z,92.50
2022-08-01T14:43:32.897Z,92.30
2022-08-01T14:46:04.777Z,92.30
2022-08-01T14:48:31.901Z,92.50
2022-08-01T14:51:00.060Z,92.90
2022-08-01T14:53:26.795Z,93.10
2022-08-01T14:55:53.576Z,93.30
2022-08-01T14:58:20.381Z,93.70
2022-08-01T15:00:47.593Z,94.20
2022-08-01T15:03:14.638Z,94.50
2022-08-01T15:05:41.510Z,94.70
2022-08-01T15:08:08.309Z,95.00
2022-08-01T15:10:35.135Z,95.20
2022-08-01T15:13:02.694Z,95.20
2022-08-01T15:15:29.716Z,95.10
2022-08-01T15:17:56.609Z,94.90
2022-08-01T15:20:23.447Z,94.80
2022-08-01T15:22:50.406Z,94.90
2022-08-01T15:25:17.205Z,94.90
2022-08-01T15:27:43.980Z,94.80
2022-08-01T15:30:11.066Z,94.80
2022-08-01T15:32:38.173Z,94.50
2022-08-01T15:35:07.086Z,94.50
2022-08-01T15:37:33.906Z,94.30
2022-08-01T15:40:04.306Z,94.40
2022-08-01T15:42:31.133Z,94.40
2022-08-01T15:44:57.954Z,94.40
2022-08-01T15:47:25.050Z,94.60
2022-08-01T15:49:52.827Z,94.70
2022-08-01T15:52:21.338Z,94.60
2022-08-01T15:54:49.982Z,94.50
2022-08-01T15:57:17.154Z,94.50
2022-08-01T15:59:44.052Z,94.40
2022-08-01T16:02:11.461Z,94.50
2022-08-01T16:04:38.936Z,94.60
2022-08-01T16:07:06.357Z,94.40
2022-08-01T16:09:33.391Z,94.30
2022-08-01T16:12:00.393Z,94.30
2022-08-01T16:14:27.267Z,94.00
2022-08-01T16:16:56.761Z,93.80
2022-08-01T16:19:24.336Z,93.70
2022-08-01T16:21:52.344Z,93.80
2022-08-01T16:24:19.225Z,93.90
2022-08-01T16:26:46.225Z,94.00
2022-08-01T16:29:13.130Z,93.80
2022-08-01T16:31:52.031Z,93.80
2022-08-01T16:34:26.786Z,93.80
2022-08-01T16:36:55.392Z,93.90
2022-08-01T16:39:23.698Z,94.10
2022-08-01T16:41:55.231Z,94.20
2022-08-01T16:44:33.310Z,94.10
2022-08-01T16:47:02.864Z,94.00
2022-08-01T16:49:30.437Z,94.00
2022-08-01T16:51:57.699Z,93.80
2022-08-01T16:54:26.447Z,93.60
2022-08-01T16:56:54.558Z,93.60
2022-08-01T16:59:23.112Z,93.70
2022-08-01T17:01:58.263Z,93.70
2022-08-01T17:04:26.620Z,93.80
2022-08-01T17:06:53.520Z,93.90
2022-08-01T17:09:20.384Z,93.60
2022-08-01T17:11:47.176Z,93.60
2022-08-01T17:14:14.544Z,93.50
2022-08-01T17:16:41.852Z,93.60
2022-08-01T17:19:08.853Z,93.60
2022-08-01T17:21:39.829Z,93.50
2022-08-01T17:24:08.271Z,93.40
2022-08-01T17:26:35.193Z,93.40
2022-08-01T17:29:02.025Z,93.40
2022-08-01T17:31:29.048Z,93.30
2022-08-01T17:33:55.860Z,93.30
2022-08-01T17:36:22.949Z,93.30
2022-08-01T17:38:49.964Z,93.40
2022-08-01T17:41:16.927Z,93.50
2022-08-01T17:43:43.863Z,93.60
2022-08-01T17:46:10.746Z,93.70
2022-08-01T17:48:37.704Z,93.70
2022-08-01T17:51:04.615Z,93.70
2022-08-01T17:53:31.599Z,93.80
2022-08-01T17:56:00.695Z,93.70
2022-08-01T17:58:49.981Z,93.80
2022-08-01T18:01:17.971Z,93.80
2022-08-01T18:03:45.568Z,93.70
2022-08-01T18:06:14.268Z,93.70
2022-08-01T18:08:42.508Z,93.60
2022-08-01T18:11:10.023Z,93.60
2022-08-01T18:13:40.290Z,93.60
2022-08-01T18:16:09.940Z,93.60
2022-08-01T18:18:38.776Z,93.60
2022-08-01T18:21:06.529Z,93.70
2022-08-01T18:23:34.200Z,93.70
2022-08-01T18:26:02.715Z,93.70
2022-08-01T18:28:36.632Z,93.60
2022-08-01T18:31:06.285Z,93.70
2022-08-01T18:33:33.789Z,93.70
2022-08-01T18:36:03.547Z,93.80
2022-08-01T18:38:35.152Z,93.70
2022-08-01T18:41:05.552Z,93.60
2022-08-01T18:43:32.570Z,93.60
2022-08-01T18:46:01.248Z,93.70
2022-08-01T18:48:28.068Z,93.80
2022-08-01T18:50:54.984Z,93.80
2022-08-01T18:53:23.939Z,93.70
2022-08-01T18:55:51.023Z,94.00
2022-08-01T18:58:18.479Z,93.70
2022-08-01T19:00:45.389Z,93.80
2022-08-01T19:03:13.664Z,93.80
2022-08-01T19:05:40.533Z,93.80
2022-08-01T19:08:08.205Z,93.80
2022-08-01T19:10:36.406Z,93.80
2022-08-01T19:13:03.614Z,93.80
2022-08-01T19:15:30.987Z,93.90
2022-08-01T19:17:57.815Z,93.90
2022-08-01T19:20:24.855Z,93.90
2022-08-01T19:22:51.704Z,93.90
2022-08-01T19:25:19.017Z,93.80
2022-08-01T19:27:50.532Z,93.70
2022-08-01T19:30:18.845Z,93.50
2022-08-01T19:32:47.533Z,93.20
2022-08-01T19:35:16.770Z,93.20
2022-08-01T19:37:46.009Z,93.20
2022-08-01T19:40:27.245Z,93.20
2022-08-01T19:42:56.867Z,92.90
2022-08-01T19:45:25.071Z,92.90
2022-08-01T19:47:57.044Z,92.90
2022-08-01T19:50:28.910Z,92.80
2022-08-01T19:52:57.626Z,92.80
2022-08-01T19:55:25.167Z,92.80
2022-08-01T19:58:17.264Z,92.80
2022-08-01T20:00:40.327Z,92.80
2022-08-01T20:03:09.063Z,92.80
2022-08-01T20:05:37.296Z,92.70
2022-08-01T20:08:06.745Z,92.70
2022-08-01T20:10:35.754Z,92.70
2022-08-01T20:13:02.994Z,92.70
2022-08-01T20:15:30.353Z,92.70
2022-08-01T20:18:00.544Z,92.70
2022-08-01T20:20:27.778Z,92.60
2022-08-01T20:22:57.367Z,92.60
2022-08-01T20:25:33.516Z,92.50
2022-08-01T20:28:10.967Z,92.40
2022-08-01T20:30:39.218Z,92.40
2022-08-01T20:33:06.454Z,92.50
2022-08-01T20:35:51.866Z,92.40
2022-08-01T20:38:27.542Z,92.50
2022-08-01T20:40:59.480Z,92.60
2022-08-01T20:43:27.743Z,92.60
2022-08-01T20:45:56.076Z,92.60
2022-08-01T20:48:25.351Z,92.70
2022-08-01T20:51:10.693Z,92.60
2022-08-01T20:53:41.902Z,92.70
2022-08-01T20:56:36.372Z,92.70
2022-08-01T20:59:10.920Z,92.80
2022-08-01T21:02:23.490Z,92.80
2022-08-01T21:05:10.828Z,92.90
2022-08-01T21:08:02.965Z,92.90
2022-08-01T21:10:32.321Z,93.00
2022-08-01T21:13:07.909Z,93.10
2022-08-01T21:16:22.653Z,93.20
2022-08-01T21:18:40.332Z,93.30
2022-08-01T21:21:19.187Z,93.40
2022-08-01T21:23:57.755Z,93.50
2022-08-01T21:26:25.116Z,93.60
2022-08-01T21:28:53.892Z,93.60
2022-08-01T21:31:22.271Z,93.70
2022-08-01T21:34:02.747Z,93.80
2022-08-01T21:36:31.742Z,93.90
2022-08-01T21:39:00.660Z,94.00
2022-08-01T21:42:04.745Z,94.00
2022-08-01T21:44:16.576Z,94.10
2022-08-01T21:46:44.307Z,94.20
2022-08-01T21:49:12.457Z,94.20
2022-08-01T21:51:53.744Z,94.30
2022-08-01T21:54:52.139Z,94.40
2022-08-01T21:57:56.606Z,94.60
2022-08-01T22:00:25.585Z,94.70
2022-08-01T22:03:20.091Z,94.70
2022-08-01T22:05:51.332Z,94.80
2022-08-01T22:08:36.477Z,94.90
2022-08-01T22:11:08.783Z,94.90
2022-08-01T22:13:36.244Z,94.90
2022-08-01T22:16:05.543Z,94.70
2022-08-01T22:18:33.852Z,94.40
2022-08-01T22:21:02.259Z,94.30
2022-08-01T22:23:29.403Z,94.30
2022-08-01T22:25:56.282Z,94.30
2022-08-01T22:28:23.883Z,94.30
2022-08-01T22:30:52.141Z,94.40
2022-08-01T22:33:19.386Z,94.50
2022-08-01T22:35:50.773Z,94.60
2022-08-01T22:38:20.598Z,94.60
2022-08-01T22:41:13.784Z,94.80
2022-08-01T22:43:49.442Z,94.80
2022-08-01T22:46:35.080Z,95.10
2022-08-01T22:49:27.354Z,94.80
2022-08-01T22:52:30.245Z,94.80
2022-08-01T22:55:10.804Z,94.90
2022-08-01T22:57:50.149Z,95.00
2022-08-01T23:00:18.534Z,95.00
2022-08-01T23:02:54.193Z,95.00
2022-08-01T23:05:23.102Z,95.10
2022-08-01T23:07:55.144Z,95.10
2022-08-01T23:10:23.869Z,95.20
2022-08-01T23:12:53.195Z,95.20
2022-08-01T23:15:21.281Z,95.20
2022-08-01T23:17:49.668Z,95.30
2022-08-01T23:20:17.189Z,95.30
2022-08-01T23:22:44.644Z,95.40
2022-08-01T23:25:14.591Z,95.40
2022-08-01T23:27:51.291Z,95.40
2022-08-01T23:30:33.057Z,95.50
2022-08-01T23:33:00.449Z,95.50
2022-08-01T23:35:30.502Z,95.50
2022-08-01T23:37:58.481Z,95.50
2022-08-01T23:40:28.939Z,95.60
2022-08-01T23:42:56.045Z,95.60
2022-08-01T23:45:23.726Z,95.50
2022-08-01T23:47:51.653Z,95.60
2022-08-01T23:50:18.710Z,95.60
2022-08-01T23:52:50.491Z,95.60
2022-08-01T23:55:19.121Z,95.70
2022-08-01T23:57:46.164Z,95.70
